sensor_id;sensor_type;location;lat;lon;timestamp;pressure;altitude;pressure_sealevel;temperature;humidity
54369;BME280;40266;52.434;17.056;2023-06-14T00:00:57;100829.31;;;13.30;88.17
54369;BME280;40266;52.434;17.056;2023-06-14T00:03:57;100833.49;;;13.31;88.19
54369;BME280;40266;52.434;17.056;2023-06-14T00:06:42;100831.38;;;13.32;88.00
54369;BME280;40266;52.434;17.056;2023-06-14T00:09:27;100835.20;;;13.33;88.01
54369;BME280;40266;52.434;17.056;2023-06-14T00:12:11;100834.69;;;13.32;88.14
54369;BME280;40266;52.434;17.056;2023-06-14T00:14:54;100836.61;;;13.33;88.18
54369;BME280;40266;52.434;17.056;2023-06-14T00:17:37;100839.01;;;13.35;88.59
54369;BME280;40266;52.434;17.056;2023-06-14T00:20:22;100841.83;;;13.35;88.50
54369;BME280;40266;52.434;17.056;2023-06-14T00:23:05;100836.17;;;13.36;88.62
54369;BME280;40266;52.434;17.056;2023-06-14T00:25:48;100837.38;;;13.37;89.40
54369;BME280;40266;52.434;17.056;2023-06-14T00:28:31;100834.58;;;13.36;89.41
54369;BME280;40266;52.434;17.056;2023-06-14T00:31:15;100832.48;;;13.36;90.03
54369;BME280;40266;52.434;17.056;2023-06-14T00:33:58;100831.84;;;13.34;89.94
54369;BME280;40266;52.434;17.056;2023-06-14T00:36:42;100826.64;;;13.32;89.98
54369;BME280;40266;52.434;17.056;2023-06-14T00:39:25;100827.71;;;13.31;89.59
54369;BME280;40266;52.434;17.056;2023-06-14T00:42:08;100830.50;;;13.32;89.76
54369;BME280;40266;52.434;17.056;2023-06-14T00:44:51;100831.18;;;13.32;89.48
54369;BME280;40266;52.434;17.056;2023-06-14T00:47:37;100828.69;;;13.34;89.86
54369;BME280;40266;52.434;17.056;2023-06-14T00:50:21;100834.30;;;13.34;89.87
54369;BME280;40266;52.434;17.056;2023-06-14T00:53:06;100836.73;;;13.34;89.95
54369;BME280;40266;52.434;17.056;2023-06-14T00:55:49;100836.39;;;13.35;90.04
54369;BME280;40266;52.434;17.056;2023-06-14T00:58:33;100833.44;;;13.33;89.80
54369;BME280;40266;52.434;17.056;2023-06-14T01:01:18;100834.21;;;13.30;90.00
54369;BME280;40266;52.434;17.056;2023-06-14T01:04:07;100828.69;;;13.26;90.00
54369;BME280;40266;52.434;17.056;2023-06-14T01:07:07;100821.88;;;13.25;89.87
54369;BME280;40266;52.434;17.056;2023-06-14T01:10:06;100819.29;;;13.23;90.10
54369;BME280;40266;52.434;17.056;2023-06-14T01:13:07;100821.64;;;13.20;89.86
54369;BME280;40266;52.434;17.056;2023-06-14T01:16:02;100818.34;;;13.19;90.00
54369;BME280;40266;52.434;17.056;2023-06-14T01:18:49;100819.98;;;13.17;90.23
54369;BME280;40266;52.434;17.056;2023-06-14T01:21:35;100817.06;;;13.15;90.09
54369;BME280;40266;52.434;17.056;2023-06-14T01:24:27;100810.12;;;13.11;90.36
54369;BME280;40266;52.434;17.056;2023-06-14T01:27:18;100809.12;;;13.09;90.32
54369;BME280;40266;52.434;17.056;2023-06-14T01:30:05;100811.62;;;13.08;90.55
54369;BME280;40266;52.434;17.056;2023-06-14T01:32:54;100808.16;;;13.06;90.52
54369;BME280;40266;52.434;17.056;2023-06-14T01:35:54;100802.60;;;13.04;90.62
54369;BME280;40266;52.434;17.056;2023-06-14T01:38:41;100802.48;;;13.01;90.71
54369;BME280;40266;52.434;17.056;2023-06-14T01:41:51;100793.84;;;12.97;91.04
54369;BME280;40266;52.434;17.056;2023-06-14T01:44:40;100793.71;;;12.95;91.27
54369;BME280;40266;52.434;17.056;2023-06-14T01:47:32;100790.64;;;12.92;91.42
54369;BME280;40266;52.434;17.056;2023-06-14T01:50:22;100787.89;;;12.89;91.54
54369;BME280;40266;52.434;17.056;2023-06-14T01:53:12;100781.16;;;12.85;91.69
54369;BME280;40266;52.434;17.056;2023-06-14T01:56:08;100785.25;;;12.83;91.73
54369;BME280;40266;52.434;17.056;2023-06-14T01:58:57;100786.52;;;12.81;91.74
54369;BME280;40266;52.434;17.056;2023-06-14T02:02:00;100783.29;;;12.77;92.22
54369;BME280;40266;52.434;17.056;2023-06-14T02:04:50;100780.01;;;12.75;92.12
54369;BME280;40266;52.434;17.056;2023-06-14T02:07:50;100784.08;;;12.74;92.81
54369;BME280;40266;52.434;17.056;2023-06-14T02:10:40;100784.98;;;12.72;92.40
54369;BME280;40266;52.434;17.056;2023-06-14T02:13:39;100783.13;;;12.70;92.77
54369;BME280;40266;52.434;17.056;2023-06-14T02:16:27;100780.38;;;12.67;92.61
54369;BME280;40266;52.434;17.056;2023-06-14T02:19:40;100789.13;;;12.67;92.57
54369;BME280;40266;52.434;17.056;2023-06-14T02:23:05;100788.48;;;12.65;92.22
54369;BME280;40266;52.434;17.056;2023-06-14T02:26:02;100788.83;;;12.65;92.35
54369;BME280;40266;52.434;17.056;2023-06-14T02:28:52;100784.81;;;12.65;92.64
54369;BME280;40266;52.434;17.056;2023-06-14T02:31:57;100786.60;;;12.63;92.41
54369;BME280;40266;52.434;17.056;2023-06-14T02:34:57;100792.95;;;12.62;92.33
54369;BME280;40266;52.434;17.056;2023-06-14T02:37:46;100794.53;;;12.61;92.32
54369;BME280;40266;52.434;17.056;2023-06-14T02:40:40;100790.89;;;12.60;92.75
54369;BME280;40266;52.434;17.056;2023-06-14T02:43:50;100794.61;;;12.58;92.83
54369;BME280;40266;52.434;17.056;2023-06-14T02:46:38;100793.24;;;12.57;92.85
54369;BME280;40266;52.434;17.056;2023-06-14T02:49:33;100798.17;;;12.56;92.59
54369;BME280;40266;52.434;17.056;2023-06-14T02:52:26;100796.74;;;12.57;92.69
54369;BME280;40266;52.434;17.056;2023-06-14T02:55:18;100798.34;;;12.56;92.86
54369;BME280;40266;52.434;17.056;2023-06-14T02:58:04;100797.14;;;12.55;92.99
54369;BME280;40266;52.434;17.056;2023-06-14T03:01:04;100792.06;;;12.55;93.16
54369;BME280;40266;52.434;17.056;2023-06-14T03:03:56;100788.54;;;12.55;93.07
54369;BME280;40266;52.434;17.056;2023-06-14T03:06:49;100789.94;;;12.56;93.21
54369;BME280;40266;52.434;17.056;2023-06-14T03:09:51;100796.41;;;12.56;93.30
54369;BME280;40266;52.434;17.056;2023-06-14T03:12:52;100796.38;;;12.57;93.35
54369;BME280;40266;52.434;17.056;2023-06-14T03:15:40;100790.78;;;12.57;93.33
54369;BME280;40266;52.434;17.056;2023-06-14T03:18:32;100788.45;;;12.59;93.35
54369;BME280;40266;52.434;17.056;2023-06-14T03:21:33;100788.25;;;12.60;93.35
54369;BME280;40266;52.434;17.056;2023-06-14T03:24:51;100791.02;;;12.62;93.37
54369;BME280;40266;52.434;17.056;2023-06-14T03:28:09;100793.43;;;12.64;93.38
54369;BME280;40266;52.434;17.056;2023-06-14T03:31:07;100800.07;;;12.64;93.41
54369;BME280;40266;52.434;17.056;2023-06-14T03:34:01;100805.46;;;12.66;93.27
54369;BME280;40266;52.434;17.056;2023-06-14T03:37:05;100810.86;;;12.67;93.43
54369;BME280;40266;52.434;17.056;2023-06-14T03:39:59;100807.86;;;12.69;93.50
54369;BME280;40266;52.434;17.056;2023-06-14T03:42:50;100810.80;;;12.70;93.45
54369;BME280;40266;52.434;17.056;2023-06-14T03:45:46;100807.98;;;12.70;93.42
54369;BME280;40266;52.434;17.056;2023-06-14T03:48:59;100806.89;;;12.72;93.36
54369;BME280;40266;52.434;17.056;2023-06-14T03:51:53;100806.89;;;12.72;93.24
54369;BME280;40266;52.434;17.056;2023-06-14T03:54:53;100812.64;;;12.74;93.38
54369;BME280;40266;52.434;17.056;2023-06-14T03:58:18;100815.58;;;12.75;93.49
54369;BME280;40266;52.434;17.056;2023-06-14T04:01:35;100815.73;;;12.76;93.49
54369;BME280;40266;52.434;17.056;2023-06-14T04:04:36;100812.90;;;12.77;93.42
54369;BME280;40266;52.434;17.056;2023-06-14T04:11:21;100822.98;;;12.81;93.52
54369;BME280;40266;52.434;17.056;2023-06-14T04:14:16;100829.92;;;12.83;93.65
54369;BME280;40266;52.434;17.056;2023-06-14T04:17:22;100828.48;;;12.85;93.42
54369;BME280;40266;52.434;17.056;2023-06-14T04:20:14;100831.58;;;12.87;93.39
54369;BME280;40266;52.434;17.056;2023-06-14T04:23:25;100832.95;;;12.88;93.46
54369;BME280;40266;52.434;17.056;2023-06-14T04:29:16;100830.27;;;12.91;93.56
54369;BME280;40266;52.434;17.056;2023-06-14T04:32:14;100823.38;;;12.94;93.58
54369;BME280;40266;52.434;17.056;2023-06-14T04:35:14;100830.65;;;12.97;93.68
54369;BME280;40266;52.434;17.056;2023-06-14T04:38:03;100827.08;;;13.00;93.47
54369;BME280;40266;52.434;17.056;2023-06-14T04:40:58;100826.67;;;13.02;93.62
54369;BME280;40266;52.434;17.056;2023-06-14T04:43:54;100828.36;;;13.04;93.74
54369;BME280;40266;52.434;17.056;2023-06-14T04:47:01;100835.67;;;13.06;93.68
54369;BME280;40266;52.434;17.056;2023-06-14T04:49:58;100835.41;;;13.09;93.43
54369;BME280;40266;52.434;17.056;2023-06-14T04:53:08;100834.87;;;13.11;93.44
54369;BME280;40266;52.434;17.056;2023-06-14T04:56:24;100837.21;;;13.15;93.51
54369;BME280;40266;52.434;17.056;2023-06-14T04:59:19;100833.09;;;13.18;93.43
54369;BME280;40266;52.434;17.056;2023-06-14T05:02:16;100830.40;;;13.21;93.34
54369;BME280;40266;52.434;17.056;2023-06-14T05:05:08;100833.48;;;13.24;93.00
54369;BME280;40266;52.434;17.056;2023-06-14T05:08:00;100833.41;;;13.26;93.16
54369;BME280;40266;52.434;17.056;2023-06-14T05:11:06;100841.36;;;13.33;93.12
54369;BME280;40266;52.434;17.056;2023-06-14T05:13:53;100840.18;;;13.37;93.25
54369;BME280;40266;52.434;17.056;2023-06-14T05:16:44;100840.83;;;13.39;92.78
54369;BME280;40266;52.434;17.056;2023-06-14T05:19:37;100843.73;;;13.42;92.64
54369;BME280;40266;52.434;17.056;2023-06-14T05:22:30;100846.82;;;13.45;92.52
54369;BME280;40266;52.434;17.056;2023-06-14T05:25:19;100852.33;;;13.48;92.78
54369;BME280;40266;52.434;17.056;2023-06-14T05:28:06;100845.43;;;13.51;92.56
54369;BME280;40266;52.434;17.056;2023-06-14T05:30:55;100853.60;;;13.54;92.43
54369;BME280;40266;52.434;17.056;2023-06-14T05:33:47;100855.77;;;13.58;92.32
54369;BME280;40266;52.434;17.056;2023-06-14T05:36:35;100856.59;;;13.60;92.28
54369;BME280;40266;52.434;17.056;2023-06-14T05:39:25;100859.12;;;13.63;92.15
54369;BME280;40266;52.434;17.056;2023-06-14T05:42:23;100861.48;;;13.67;92.04
54369;BME280;40266;52.434;17.056;2023-06-14T05:45:24;100861.39;;;13.70;91.95
54369;BME280;40266;52.434;17.056;2023-06-14T05:48:10;100858.02;;;13.72;91.98
54369;BME280;40266;52.434;17.056;2023-06-14T05:51:02;100855.31;;;13.75;91.95
54369;BME280;40266;52.434;17.056;2023-06-14T05:53:48;100863.68;;;13.77;91.82
54369;BME280;40266;52.434;17.056;2023-06-14T05:56:41;100866.07;;;13.79;91.84
54369;BME280;40266;52.434;17.056;2023-06-14T05:59:35;100868.86;;;13.80;91.76
54369;BME280;40266;52.434;17.056;2023-06-14T06:02:23;100869.68;;;13.82;92.08
54369;BME280;40266;52.434;17.056;2023-06-14T06:05:16;100864.17;;;13.85;92.34
54369;BME280;40266;52.434;17.056;2023-06-14T06:08:04;100866.38;;;13.87;92.45
54369;BME280;40266;52.434;17.056;2023-06-14T06:10:51;100867.49;;;13.91;92.41
54369;BME280;40266;52.434;17.056;2023-06-14T06:13:40;100869.88;;;13.93;92.36
54369;BME280;40266;52.434;17.056;2023-06-14T06:16:39;100874.61;;;13.94;92.40
54369;BME280;40266;52.434;17.056;2023-06-14T06:19:49;100880.89;;;13.95;92.78
54369;BME280;40266;52.434;17.056;2023-06-14T06:22:34;100882.17;;;13.93;92.59
54369;BME280;40266;52.434;17.056;2023-06-14T06:25:22;100884.08;;;13.94;92.62
54369;BME280;40266;52.434;17.056;2023-06-14T06:28:13;100885.95;;;13.97;92.64
54369;BME280;40266;52.434;17.056;2023-06-14T06:31:01;100881.34;;;14.04;92.82
54369;BME280;40266;52.434;17.056;2023-06-14T06:33:53;100877.23;;;14.13;92.82
54369;BME280;40266;52.434;17.056;2023-06-14T06:36:42;100875.30;;;14.19;92.58
54369;BME280;40266;52.434;17.056;2023-06-14T06:39:27;100877.73;;;14.26;92.45
54369;BME280;40266;52.434;17.056;2023-06-14T06:42:16;100878.77;;;14.33;92.55
54369;BME280;40266;52.434;17.056;2023-06-14T06:45:08;100882.15;;;14.37;92.31
54369;BME280;40266;52.434;17.056;2023-06-14T06:48:00;100884.52;;;14.40;92.03
54369;BME280;40266;52.434;17.056;2023-06-14T06:50:46;100884.05;;;14.44;92.00
54369;BME280;40266;52.434;17.056;2023-06-14T06:53:34;100888.54;;;14.46;91.94
54369;BME280;40266;52.434;17.056;2023-06-14T06:56:28;100886.69;;;14.49;92.11
54369;BME280;40266;52.434;17.056;2023-06-14T06:59:22;100894.06;;;14.50;91.91
54369;BME280;40266;52.434;17.056;2023-06-14T07:02:18;100897.52;;;14.52;92.18
54369;BME280;40266;52.434;17.056;2023-06-14T07:05:05;100893.96;;;14.54;91.65
54369;BME280;40266;52.434;17.056;2023-06-14T07:07:49;100896.70;;;14.57;91.45
54369;BME280;40266;52.434;17.056;2023-06-14T07:10:54;100892.53;;;14.61;91.38
54369;BME280;40266;52.434;17.056;2023-06-14T07:13:37;100887.98;;;14.66;91.46
54369;BME280;40266;52.434;17.056;2023-06-14T07:16:26;100892.23;;;14.71;91.37
54369;BME280;40266;52.434;17.056;2023-06-14T07:19:10;100894.77;;;14.74;91.57
54369;BME280;40266;52.434;17.056;2023-06-14T07:21:59;100896.97;;;14.76;91.55
54369;BME280;40266;52.434;17.056;2023-06-14T07:24:54;100902.36;;;14.79;91.99
54369;BME280;40266;52.434;17.056;2023-06-14T07:27:43;100900.40;;;14.85;92.06
54369;BME280;40266;52.434;17.056;2023-06-14T07:30:32;100905.36;;;14.95;92.07
54369;BME280;40266;52.434;17.056;2023-06-14T07:33:36;100903.70;;;15.03;92.07
54369;BME280;40266;52.434;17.056;2023-06-14T07:36:26;100907.39;;;15.08;91.68
54369;BME280;40266;52.434;17.056;2023-06-14T07:39:10;100906.23;;;15.12;91.42
54369;BME280;40266;52.434;17.056;2023-06-14T07:41:56;100907.11;;;15.17;91.68
54369;BME280;40266;52.434;17.056;2023-06-14T07:44:56;100906.49;;;15.14;91.12
54369;BME280;40266;52.434;17.056;2023-06-14T07:47:47;100907.40;;;15.19;90.81
54369;BME280;40266;52.434;17.056;2023-06-14T07:50:33;100906.21;;;15.23;90.62
54369;BME280;40266;52.434;17.056;2023-06-14T07:53:22;100906.66;;;15.25;90.37
54369;BME280;40266;52.434;17.056;2023-06-14T07:56:16;100904.54;;;15.31;90.87
54369;BME280;40266;52.434;17.056;2023-06-14T07:59:03;100904.53;;;15.36;90.72
54369;BME280;40266;52.434;17.056;2023-06-14T08:02:12;100900.42;;;15.43;90.65
54369;BME280;40266;52.434;17.056;2023-06-14T08:05:05;100890.25;;;15.58;90.76
54369;BME280;40266;52.434;17.056;2023-06-14T08:07:51;100893.98;;;15.67;89.48
54369;BME280;40266;52.434;17.056;2023-06-14T08:10:37;100895.84;;;15.75;89.00
54369;BME280;40266;52.434;17.056;2023-06-14T08:13:43;100897.40;;;15.86;88.38
54369;BME280;40266;52.434;17.056;2023-06-14T08:16:29;100896.25;;;15.94;87.57
54369;BME280;40266;52.434;17.056;2023-06-14T08:19:12;100896.67;;;16.01;87.09
54369;BME280;40266;52.434;17.056;2023-06-14T08:21:58;100898.56;;;16.07;86.82
54369;BME280;40266;52.434;17.056;2023-06-14T08:24:44;100903.13;;;16.12;85.34
54369;BME280;40266;52.434;17.056;2023-06-14T08:27:34;100906.29;;;16.17;84.56
54369;BME280;40266;52.434;17.056;2023-06-14T08:30:22;100902.55;;;16.28;84.20
54369;BME280;40266;52.434;17.056;2023-06-14T08:33:12;100907.16;;;16.41;83.62
54369;BME280;40266;52.434;17.056;2023-06-14T08:35:59;100902.55;;;16.56;82.94
54369;BME280;40266;52.434;17.056;2023-06-14T08:38:54;100904.50;;;16.73;81.97
54369;BME280;40266;52.434;17.056;2023-06-14T08:41:38;100903.05;;;16.89;81.97
54369;BME280;40266;52.434;17.056;2023-06-14T08:44:21;100903.13;;;17.13;82.39
54369;BME280;40266;52.434;17.056;2023-06-14T08:47:07;100910.45;;;17.37;80.59
54369;BME280;40266;52.434;17.056;2023-06-14T08:49:51;100906.98;;;17.52;79.05
54369;BME280;40266;52.434;17.056;2023-06-14T08:52:42;100906.30;;;17.72;77.55
54369;BME280;40266;52.434;17.056;2023-06-14T08:55:29;100902.65;;;17.91;78.01
54369;BME280;40266;52.434;17.056;2023-06-14T08:58:20;100899.98;;;18.23;78.11
54369;BME280;40266;52.434;17.056;2023-06-14T09:01:04;100898.39;;;18.58;75.04
54369;BME280;40266;52.434;17.056;2023-06-14T09:03:51;100897.55;;;18.83;75.50
54369;BME280;40266;52.434;17.056;2023-06-14T09:06:35;100892.44;;;19.09;74.27
54369;BME280;40266;52.434;17.056;2023-06-14T09:09:21;100892.88;;;19.14;73.26
54369;BME280;40266;52.434;17.056;2023-06-14T09:12:08;100897.43;;;19.22;72.35
54369;BME280;40266;52.434;17.056;2023-06-14T09:14:53;100896.09;;;19.28;70.90
54369;BME280;40266;52.434;17.056;2023-06-14T09:17:40;100899.70;;;19.33;70.38
54369;BME280;40266;52.434;17.056;2023-06-14T09:20:24;100900.13;;;19.32;69.90
54369;BME280;40266;52.434;17.056;2023-06-14T09:23:07;100903.48;;;19.35;70.16
54369;BME280;40266;52.434;17.056;2023-06-14T09:25:51;100907.98;;;19.41;68.68
54369;BME280;40266;52.434;17.056;2023-06-14T09:28:44;100905.42;;;19.36;67.56
54369;BME280;40266;52.434;17.056;2023-06-14T09:31:27;100900.02;;;19.41;67.77
54369;BME280;40266;52.434;17.056;2023-06-14T09:34:16;100899.22;;;19.43;66.87
54369;BME280;40266;52.434;17.056;2023-06-14T09:37:01;100897.21;;;19.54;66.68
54369;BME280;40266;52.434;17.056;2023-06-14T09:39:52;100888.15;;;19.66;65.88
54369;BME280;40266;52.434;17.056;2023-06-14T09:42:37;100885.19;;;19.61;66.75
54369;BME280;40266;52.434;17.056;2023-06-14T09:45:20;100883.16;;;19.70;67.17
54369;BME280;40266;52.434;17.056;2023-06-14T09:48:08;100880.77;;;19.95;66.74
54369;BME280;40266;52.434;17.056;2023-06-14T09:50:55;100879.80;;;20.16;65.76
54369;BME280;40266;52.434;17.056;2023-06-14T09:53:41;100884.85;;;20.12;64.55
54369;BME280;40266;52.434;17.056;2023-06-14T09:56:31;100878.21;;;20.13;63.94
54369;BME280;40266;52.434;17.056;2023-06-14T09:59:19;100875.11;;;20.28;64.32
54369;BME280;40266;52.434;17.056;2023-06-14T10:02:09;100867.13;;;20.51;63.52
54369;BME280;40266;52.434;17.056;2023-06-14T10:05:08;100860.25;;;20.76;63.23
54369;BME280;40266;52.434;17.056;2023-06-14T10:08:04;100859.57;;;20.90;62.87
54369;BME280;40266;52.434;17.056;2023-06-14T10:10:50;100860.39;;;20.92;61.75
54369;BME280;40266;52.434;17.056;2023-06-14T10:13:34;100858.08;;;20.85;60.39
54369;BME280;40266;52.434;17.056;2023-06-14T10:19:30;100857.52;;;20.67;59.53
54369;BME280;40266;52.434;17.056;2023-06-14T10:22:23;100856.00;;;20.66;59.60
54369;BME280;40266;52.434;17.056;2023-06-14T10:25:13;100861.88;;;20.75;59.47
54369;BME280;40266;52.434;17.056;2023-06-14T10:28:15;100863.17;;;20.77;59.05
54369;BME280;40266;52.434;17.056;2023-06-14T10:31:06;100862.52;;;20.70;59.15
54369;BME280;40266;52.434;17.056;2023-06-14T10:33:56;100859.17;;;20.60;58.43
54369;BME280;40266;52.434;17.056;2023-06-14T10:36:42;100856.86;;;20.57;59.38
54369;BME280;40266;52.434;17.056;2023-06-14T10:39:26;100851.56;;;20.59;59.20
54369;BME280;40266;52.434;17.056;2023-06-14T10:42:09;100856.36;;;20.59;58.64
54369;BME280;40266;52.434;17.056;2023-06-14T10:44:54;100853.39;;;20.59;59.36
54369;BME280;40266;52.434;17.056;2023-06-14T10:47:48;100854.09;;;20.65;59.69
54369;BME280;40266;52.434;17.056;2023-06-14T10:50:32;100851.23;;;20.72;59.46
54369;BME280;40266;52.434;17.056;2023-06-14T10:53:23;100852.86;;;20.80;59.36
54369;BME280;40266;52.434;17.056;2023-06-14T10:56:09;100850.27;;;20.82;57.89
54369;BME280;40266;52.434;17.056;2023-06-14T10:59:07;100851.17;;;20.79;57.89
54369;BME280;40266;52.434;17.056;2023-06-14T11:02:20;100847.30;;;20.84;58.19
54369;BME280;40266;52.434;17.056;2023-06-14T11:05:15;100846.36;;;20.92;56.87
54369;BME280;40266;52.434;17.056;2023-06-14T11:11:06;100848.13;;;20.92;56.63
54369;BME280;40266;52.434;17.056;2023-06-14T11:13:54;100846.80;;;20.99;56.97
54369;BME280;40266;52.434;17.056;2023-06-14T11:16:37;100844.11;;;21.09;56.26
54369;BME280;40266;52.434;17.056;2023-06-14T11:19:21;100838.56;;;21.13;55.52
54369;BME280;40266;52.434;17.056;2023-06-14T11:22:04;100834.33;;;21.24;55.34
54369;BME280;40266;52.434;17.056;2023-06-14T11:24:51;100827.90;;;21.40;55.89
54369;BME280;40266;52.434;17.056;2023-06-14T11:27:34;100830.58;;;21.52;56.44
54369;BME280;40266;52.434;17.056;2023-06-14T11:30:18;100831.67;;;21.48;54.71
54369;BME280;40266;52.434;17.056;2023-06-14T11:33:01;100829.09;;;21.31;53.65
54369;BME280;40266;52.434;17.056;2023-06-14T11:35:44;100832.19;;;21.10;53.23
54369;BME280;40266;52.434;17.056;2023-06-14T11:38:28;100834.04;;;20.87;53.32
54369;BME280;40266;52.434;17.056;2023-06-14T11:41:12;100831.94;;;20.65;53.39
54369;BME280;40266;52.434;17.056;2023-06-14T11:43:55;100834.48;;;20.54;54.44
54369;BME280;40266;52.434;17.056;2023-06-14T11:46:38;100831.88;;;20.50;54.67
54369;BME280;40266;52.434;17.056;2023-06-14T11:49:24;100825.91;;;20.45;54.89
54369;BME280;40266;52.434;17.056;2023-06-14T11:52:10;100827.36;;;20.51;54.88
54369;BME280;40266;52.434;17.056;2023-06-14T11:54:54;100827.77;;;20.57;53.98
54369;BME280;40266;52.434;17.056;2023-06-14T11:57:38;100823.45;;;20.61;53.09
54369;BME280;40266;52.434;17.056;2023-06-14T12:00:25;100819.95;;;20.66;52.10
54369;BME280;40266;52.434;17.056;2023-06-14T12:03:11;100816.09;;;20.65;51.70
54369;BME280;40266;52.434;17.056;2023-06-14T12:06:07;100811.33;;;20.65;52.39
54369;BME280;40266;52.434;17.056;2023-06-14T12:08:55;100810.55;;;20.69;52.71
54369;BME280;40266;52.434;17.056;2023-06-14T12:11:39;100809.86;;;20.72;52.43
54369;BME280;40266;52.434;17.056;2023-06-14T12:14:28;100803.19;;;20.74;52.40
54369;BME280;40266;52.434;17.056;2023-06-14T12:17:11;100803.65;;;20.75;52.57
54369;BME280;40266;52.434;17.056;2023-06-14T12:19:55;100803.57;;;20.77;51.54
54369;BME280;40266;52.434;17.056;2023-06-14T12:22:39;100800.48;;;20.74;51.58
54369;BME280;40266;52.434;17.056;2023-06-14T12:25:36;100800.95;;;20.76;51.14
54369;BME280;40266;52.434;17.056;2023-06-14T12:28:21;100802.79;;;20.81;51.25
54369;BME280;40266;52.434;17.056;2023-06-14T12:31:04;100796.81;;;20.82;50.96
54369;BME280;40266;52.434;17.056;2023-06-14T12:33:47;100791.77;;;20.87;51.20
54369;BME280;40266;52.434;17.056;2023-06-14T12:36:32;100795.76;;;20.95;50.80
54369;BME280;40266;52.434;17.056;2023-06-14T12:39:15;100792.42;;;21.03;51.11
54369;BME280;40266;52.434;17.056;2023-06-14T12:41:58;100790.14;;;21.12;51.06
54369;BME280;40266;52.434;17.056;2023-06-14T12:44:42;100787.48;;;21.17;51.06
54369;BME280;40266;52.434;17.056;2023-06-14T12:47:25;100791.90;;;21.30;50.89
54369;BME280;40266;52.434;17.056;2023-06-14T12:50:08;100790.34;;;21.35;50.57
54369;BME280;40266;52.434;17.056;2023-06-14T12:52:54;100784.48;;;21.41;50.55
54369;BME280;40266;52.434;17.056;2023-06-14T12:55:37;100783.77;;;21.47;49.77
54369;BME280;40266;52.434;17.056;2023-06-14T12:58:20;100784.50;;;21.50;50.29
54369;BME280;40266;52.434;17.056;2023-06-14T13:01:16;100788.48;;;21.60;50.49
54369;BME280;40266;52.434;17.056;2023-06-14T13:04:08;100785.45;;;21.63;48.96
54369;BME280;40266;52.434;17.056;2023-06-14T13:06:52;100784.38;;;21.66;48.88
54369;BME280;40266;52.434;17.056;2023-06-14T13:09:35;100786.62;;;21.73;47.59
54369;BME280;40266;52.434;17.056;2023-06-14T13:12:18;100783.27;;;21.76;47.04
54369;BME280;40266;52.434;17.056;2023-06-14T13:15:01;100779.62;;;21.85;47.54
54369;BME280;40266;52.434;17.056;2023-06-14T13:17:44;100777.59;;;22.01;46.66
54369;BME280;40266;52.434;17.056;2023-06-14T13:20:32;100773.68;;;22.12;46.32
54369;BME280;40266;52.434;17.056;2023-06-14T13:23:24;100768.79;;;22.16;46.95
54369;BME280;40266;52.434;17.056;2023-06-14T13:26:16;100764.98;;;22.14;46.15
54369;BME280;40266;52.434;17.056;2023-06-14T13:29:01;100764.05;;;22.09;46.85
54369;BME280;40266;52.434;17.056;2023-06-14T13:31:49;100758.69;;;22.12;45.71
54369;BME280;40266;52.434;17.056;2023-06-14T13:34:33;100758.91;;;22.12;46.57
54369;BME280;40266;52.434;17.056;2023-06-14T13:37:19;100753.73;;;22.15;47.57
54369;BME280;40266;52.434;17.056;2023-06-14T13:40:14;100755.77;;;22.17;46.81
54369;BME280;40266;52.434;17.056;2023-06-14T13:43:07;100749.82;;;22.09;46.01
54369;BME280;40266;52.434;17.056;2023-06-14T13:45:50;100750.52;;;22.07;45.56
54369;BME280;40266;52.434;17.056;2023-06-14T13:48:36;100751.40;;;21.96;45.64
54369;BME280;40266;52.434;17.056;2023-06-14T13:51:19;100749.09;;;21.90;46.52
54369;BME280;40266;52.434;17.056;2023-06-14T13:54:04;100749.67;;;21.84;46.89
54369;BME280;40266;52.434;17.056;2023-06-14T13:56:49;100750.06;;;21.81;47.07
54369;BME280;40266;52.434;17.056;2023-06-14T13:59:33;100755.10;;;21.71;46.83
54369;BME280;40266;52.434;17.056;2023-06-14T14:02:37;100756.95;;;21.61;47.09
54369;BME280;40266;52.434;17.056;2023-06-14T14:05:31;100756.02;;;21.56;47.82
54369;BME280;40266;52.434;17.056;2023-06-14T14:08:15;100757.51;;;21.55;46.19
54369;BME280;40266;52.434;17.056;2023-06-14T14:11:04;100758.28;;;21.51;45.27
54369;BME280;40266;52.434;17.056;2023-06-14T14:13:48;100763.71;;;21.47;43.87
54369;BME280;40266;52.434;17.056;2023-06-14T14:16:32;100758.90;;;21.42;44.41
54369;BME280;40266;52.434;17.056;2023-06-14T14:19:22;100755.00;;;21.38;44.72
54369;BME280;40266;52.434;17.056;2023-06-14T14:22:07;100757.63;;;21.39;44.82
54369;BME280;40266;52.434;17.056;2023-06-14T14:24:50;100753.65;;;21.34;45.44
54369;BME280;40266;52.434;17.056;2023-06-14T14:27:38;100754.19;;;21.34;45.60
54369;BME280;40266;52.434;17.056;2023-06-14T14:30:29;100752.49;;;21.29;43.96
54369;BME280;40266;52.434;17.056;2023-06-14T14:33:13;100758.78;;;21.19;43.68
54369;BME280;40266;52.434;17.056;2023-06-14T14:36:03;100764.42;;;21.11;43.82
54369;BME280;40266;52.434;17.056;2023-06-14T14:39:10;100765.66;;;21.02;44.67
54369;BME280;40266;52.434;17.056;2023-06-14T14:41:54;100761.33;;;20.95;45.38
54369;BME280;40266;52.434;17.056;2023-06-14T14:44:40;100757.97;;;20.92;45.79
54369;BME280;40266;52.434;17.056;2023-06-14T14:47:23;100759.09;;;20.99;45.94
54369;BME280;40266;52.434;17.056;2023-06-14T14:50:07;100760.38;;;21.07;46.05
54369;BME280;40266;52.434;17.056;2023-06-14T14:52:54;100759.39;;;21.15;45.94